Time;durP1;ratioP1;P1;durP2;ratioP2;P2;SDS_P1;SDS_P2;PMS_P1;PMS_P2;Temp;Humidity;BMP_temperature;BMP_pressure;BME280_temperature;BME280_humidity;BME280_pressure;Samples;Min_cycle;Max_cycle;Signal;HPM_P1;HPM_P2
2021/12/22 00:02:14;;;;;;;22.52;17.90;;;;;;;;;;4959809;28;20047;-60
2021/12/22 00:04:46;;;;;;;27.10;20.15;;;;;;;;;;4958378;28;20126;-59
2021/12/22 00:07:14;;;;;;;24.65;18.65;;;;;;;;;;4964135;28;20049;-59
2021/12/22 00:09:42;;;;;;;24.50;19.58;;;;;;;;;;4964498;28;20050;-59
2021/12/22 00:12:10;;;;;;;28.67;22.27;;;;;;;;;;4956755;28;20094;-60
2021/12/22 00:14:37;;;;;;;28.23;22.95;;;;;;;;;;4959978;28;20043;-59
2021/12/22 00:17:04;;;;;;;25.10;19.42;;;;;;;;;;4961367;28;20445;-60
2021/12/22 00:19:31;;;;;;;28.30;21.63;;;;;;;;;;4963386;28;20046;-59
2021/12/22 00:21:58;;;;;;;29.60;20.88;;;;;;;;;;4962570;28;20039;-59
2021/12/22 00:24:25;;;;;;;29.52;22.02;;;;;;;;;;4961526;28;20106;-59
2021/12/22 00:26:53;;;;;;;26.25;20.55;;;;;;;;;;4960042;28;20035;-61
2021/12/22 00:29:21;;;;;;;25.77;19.75;;;;;;;;;;4966137;28;20047;-60
2021/12/22 00:32:07;;;;;;;26.35;20.67;;;;;;;;;;4962673;28;20379;-59
2021/12/22 00:34:35;;;;;;;32.00;23.05;;;;;;;;;;4963662;28;20455;-60
2021/12/22 00:37:02;;;;;;;30.15;22.42;;;;;;;;;;4960493;28;20402;-59
2021/12/22 00:39:29;;;;;;;32.13;22.73;;;;;;;;;;4957552;28;20152;-59
2021/12/22 00:41:56;;;;;;;32.55;22.20;;;;;;;;;;4953975;28;20087;-59
2021/12/22 00:44:25;;;;;;;33.65;22.92;;;;;;;;;;4955998;28;20050;-59
2021/12/22 00:46:52;;;;;;;28.33;22.38;;;;;;;;;;4956852;28;20040;-59
2021/12/22 00:49:19;;;;;;;34.15;23.13;;;;;;;;;;4956604;28;20047;-59
2021/12/22 00:51:45;;;;;;;34.65;23.98;;;;;;;;;;4956228;28;20517;-59
2021/12/22 00:54:12;;;;;;;36.10;22.17;;;;;;;;;;4938907;28;20057;-59
2021/12/22 00:56:39;;;;;;;31.50;24.80;;;;;;;;;;4956725;28;20071;-58
2021/12/22 00:59:06;;;;;;;28.05;20.30;;;;;;;;;;4955767;28;20047;-59
2021/12/22 01:01:33;;;;;;;26.85;21.58;;;;;;;;;;4956556;28;20043;-59
2021/12/22 01:04:00;;;;;;;29.50;22.58;;;;;;;;;;4956859;28;20051;-59
2021/12/22 01:06:28;;;;;;;36.97;23.40;;;;;;;;;;4956107;28;20561;-59
2021/12/22 01:08:57;;;;;;;29.65;22.58;;;;;;;;;;4956433;28;20043;-59
2021/12/22 01:11:24;;;;;;;32.13;22.92;;;;;;;;;;4956252;28;20066;-59
2021/12/22 01:13:51;;;;;;;34.55;26.65;;;;;;;;;;4956383;28;20054;-59
2021/12/22 01:16:21;;;;;;;37.63;23.42;;;;;;;;;;4956096;28;20046;-59
2021/12/22 01:18:48;;;;;;;34.88;26.15;;;;;;;;;;4956341;28;20050;-59
2021/12/22 01:21:36;;;;;;;35.60;25.25;;;;;;;;;;4955742;28;20040;-59
2021/12/22 01:24:14;;;;;;;32.05;22.42;;;;;;;;;;4956165;28;20054;-59
2021/12/22 01:26:46;;;;;;;40.47;26.38;;;;;;;;;;4955781;28;20043;-59
2021/12/22 01:29:14;;;;;;;30.42;23.38;;;;;;;;;;4956298;28;20898;-60
2021/12/22 01:31:42;;;;;;;31.02;23.90;;;;;;;;;;4955726;28;20487;-60
2021/12/22 01:34:10;;;;;;;34.83;26.35;;;;;;;;;;4955755;28;20051;-59
2021/12/22 01:36:38;;;;;;;36.88;25.70;;;;;;;;;;4955856;28;20043;-59
2021/12/22 01:39:06;;;;;;;32.80;25.27;;;;;;;;;;4955474;29;20048;-59
2021/12/22 01:41:33;;;;;;;32.38;22.98;;;;;;;;;;4956213;28;20711;-60
2021/12/22 01:44:00;;;;;;;31.52;24.25;;;;;;;;;;4955386;28;20082;-60
2021/12/22 01:49:11;;;;;;;35.97;26.58;;;;;;;;;;4955152;29;20047;-60
2021/12/22 01:51:40;;;;;;;34.25;26.60;;;;;;;;;;4938669;29;20098;-61
2021/12/22 01:54:35;;;;;;;37.03;26.90;;;;;;;;;;4955474;28;20039;-60
2021/12/22 01:57:08;;;;;;;36.92;24.52;;;;;;;;;;4942872;29;20514;-58
2021/12/22 01:59:37;;;;;;;36.20;25.48;;;;;;;;;;4955128;29;20418;-57
2021/12/22 02:02:06;;;;;;;32.40;25.08;;;;;;;;;;4938178;29;20082;-57
2021/12/22 02:04:33;;;;;;;33.20;24.42;;;;;;;;;;4955159;28;20106;-58
2021/12/22 02:07:01;;;;;;;34.53;25.48;;;;;;;;;;4955375;29;20051;-58
2021/12/22 02:12:13;;;;;;;;;;;;;;;;;;4954550;28;20498;-58
2021/12/22 02:14:42;;;;;;;30.42;25.02;;;;;;;;;;4955234;28;19922;-57
2021/12/22 02:17:11;;;;;;;34.75;23.17;;;;;;;;;;4954676;28;20042;-57
2021/12/22 02:19:39;;;;;;;28.02;22.55;;;;;;;;;;4955015;28;20039;-59
2021/12/22 02:22:12;;;;;;;34.60;23.65;;;;;;;;;;4954672;29;20043;-58
2021/12/22 02:24:54;;;;;;;28.95;23.17;;;;;;;;;;4935854;29;20048;-59
2021/12/22 02:27:29;;;;;;;28.73;23.38;;;;;;;;;;4935667;29;20040;-57
2021/12/22 02:30:00;;;;;;;33.35;23.10;;;;;;;;;;4936596;28;20051;-58
2021/12/22 02:35:01;;;;;;;29.52;22.90;;;;;;;;;;4954931;29;20098;-59
2021/12/22 02:37:29;;;;;;;28.90;22.20;;;;;;;;;;4934613;29;20070;-59
2021/12/22 02:40:10;;;;;;;26.70;22.95;;;;;;;;;;4936580;28;20052;-59
2021/12/22 02:42:37;;;;;;;26.33;22.92;;;;;;;;;;4954673;28;20058;-59
2021/12/22 02:45:09;;;;;;;31.25;21.98;;;;;;;;;;4952275;28;20046;-59
2021/12/22 02:47:36;;;;;;;25.35;21.50;;;;;;;;;;4950406;28;20043;-59
2021/12/22 02:50:05;;;;;;;28.30;21.90;;;;;;;;;;4954574;28;20039;-59
2021/12/22 02:52:35;;;;;;;22.92;19.65;;;;;;;;;;4954605;28;20387;-59
2021/12/22 02:55:03;;;;;;;28.45;22.98;;;;;;;;;;4954541;28;20048;-59
2021/12/22 02:57:45;;;;;;;27.13;21.77;;;;;;;;;;4973711;28;20053;-59
2021/12/22 03:05:29;;;;;;;36.30;26.02;;;;;;;;;;4973534;28;20050;-59
2021/12/22 03:07:56;;;;;;;30.35;24.10;;;;;;;;;;4973737;28;20038;-59
2021/12/22 03:10:23;;;;;;;28.25;22.27;;;;;;;;;;4973451;28;20069;-59
2021/12/22 03:12:52;;;;;;;25.70;19.05;;;;;;;;;;4972833;28;20389;-59
2021/12/22 03:15:19;;;;;;;25.80;22.02;;;;;;;;;;4973271;28;20046;-59
2021/12/22 03:17:47;;;;;;;29.10;21.75;;;;;;;;;;4973840;28;20053;-59
2021/12/22 03:20:15;;;;;;;33.10;22.08;;;;;;;;;;4973301;28;20035;-59
2021/12/22 03:22:45;;;;;;;31.70;22.48;;;;;;;;;;4974946;28;20045;-59
2021/12/22 03:25:16;;;;;;;30.10;23.83;;;;;;;;;;4977513;28;20158;-59
2021/12/22 03:27:48;;;;;;;33.80;23.05;;;;;;;;;;4977499;28;20401;-59
2021/12/22 03:30:24;;;;;;;25.63;20.92;;;;;;;;;;4977380;28;20513;-60
2021/12/22 03:32:51;;;;;;;29.23;23.75;;;;;;;;;;4977038;28;20490;-60
2021/12/22 03:35:20;;;;;;;30.33;22.23;;;;;;;;;;4977497;28;20094;-60
2021/12/22 03:37:51;;;;;;;30.40;23.10;;;;;;;;;;4976782;28;20050;-59
2021/12/22 03:40:19;;;;;;;29.42;22.92;;;;;;;;;;4977776;28;20047;-60
2021/12/22 03:42:47;;;;;;;29.42;23.55;;;;;;;;;;4977122;28;20057;-59
2021/12/22 03:45:15;;;;;;;34.28;25.08;;;;;;;;;;4977349;28;20035;-60
2021/12/22 03:47:42;;;;;;;29.02;23.00;;;;;;;;;;4976850;28;20077;-60
2021/12/22 03:50:12;;;;;;;42.00;26.83;;;;;;;;;;4977146;28;20058;-59
2021/12/22 03:52:39;;;;;;;37.58;26.63;;;;;;;;;;4976925;28;20055;-59
2021/12/22 03:55:07;;;;;;;35.35;27.10;;;;;;;;;;4976969;28;20433;-59
2021/12/22 03:57:34;;;;;;;41.08;27.60;;;;;;;;;;4976908;28;20053;-60
2021/12/22 04:00:05;;;;;;;32.83;27.05;;;;;;;;;;4976430;28;20054;-60
2021/12/22 04:02:33;;;;;;;38.25;27.55;;;;;;;;;;4959693;28;20047;-60
2021/12/22 04:05:00;;;;;;;36.33;25.63;;;;;;;;;;4976884;28;20043;-60
2021/12/22 04:07:27;;;;;;;35.65;25.40;;;;;;;;;;4977014;28;20047;-60
2021/12/22 04:09:54;;;;;;;40.38;28.13;;;;;;;;;;4976383;28;20047;-60
2021/12/22 04:12:21;;;;;;;45.13;30.90;;;;;;;;;;4976571;28;20105;-60
2021/12/22 04:14:48;;;;;;;44.90;29.55;;;;;;;;;;4976547;28;20035;-60
2021/12/22 04:17:15;;;;;;;46.28;29.50;;;;;;;;;;4976590;28;20047;-60
2021/12/22 04:19:42;;;;;;;43.67;30.83;;;;;;;;;;4976418;28;20054;-60
2021/12/22 04:22:09;;;;;;;41.42;30.40;;;;;;;;;;4976183;28;20046;-60
2021/12/22 04:24:40;;;;;;;40.83;30.85;;;;;;;;;;4976319;28;20138;-59
2021/12/22 04:27:07;;;;;;;43.35;30.63;;;;;;;;;;4976017;28;20097;-60
2021/12/22 04:29:34;;;;;;;48.42;30.92;;;;;;;;;;4976419;28;20047;-60
2021/12/22 04:32:01;;;;;;;45.92;29.02;;;;;;;;;;4975908;28;20525;-60
2021/12/22 04:34:30;;;;;;;40.55;29.52;;;;;;;;;;4975563;28;20043;-60
2021/12/22 04:36:57;;;;;;;43.83;29.08;;;;;;;;;;4961179;28;20051;-60
2021/12/22 04:39:25;;;;;;;45.42;32.85;;;;;;;;;;4956392;28;20039;-60
2021/12/22 04:41:52;;;;;;;44.00;31.42;;;;;;;;;;4950760;28;20059;-60
2021/12/22 04:44:19;;;;;;;41.30;29.98;;;;;;;;;;4956904;28;20050;-60
2021/12/22 04:46:46;;;;;;;39.92;29.40;;;;;;;;;;4956735;28;20509;-61
2021/12/22 04:49:13;;;;;;;40.30;29.08;;;;;;;;;;4956477;28;20043;-60
2021/12/22 04:51:48;;;;;;;44.85;29.88;;;;;;;;;;4956966;28;20047;-60
2021/12/22 04:54:31;;;;;;;45.05;33.53;;;;;;;;;;4956531;28;20516;-60
2021/12/22 04:56:58;;;;;;;41.92;29.70;;;;;;;;;;4956383;28;20047;-59
2021/12/22 04:59:25;;;;;;;46.30;32.95;;;;;;;;;;4956403;28;20074;-60
2021/12/22 05:01:52;;;;;;;43.47;31.33;;;;;;;;;;4956607;28;20058;-60
2021/12/22 05:04:19;;;;;;;44.40;33.30;;;;;;;;;;4956070;28;20079;-60
2021/12/22 05:06:47;;;;;;;52.75;33.13;;;;;;;;;;4950141;28;20051;-60
2021/12/22 05:09:14;;;;;;;55.17;36.00;;;;;;;;;;4950240;28;20047;-60
2021/12/22 05:11:41;;;;;;;50.15;34.42;;;;;;;;;;4956081;28;20050;-60
2021/12/22 05:14:09;;;;;;;46.22;35.33;;;;;;;;;;4956306;28;20051;-60
2021/12/22 05:16:44;;;;;;;48.50;34.60;;;;;;;;;;4956751;28;20134;-60
2021/12/22 05:19:15;;;;;;;49.28;35.92;;;;;;;;;;4956430;28;20058;-60
2021/12/22 05:21:43;;;;;;;56.55;32.38;;;;;;;;;;4956140;28;20063;-60
2021/12/22 05:24:11;;;;;;;49.55;33.63;;;;;;;;;;4956149;28;20043;-60
2021/12/22 05:26:38;;;;;;;44.42;31.77;;;;;;;;;;4955876;28;20058;-60
2021/12/22 05:29:05;;;;;;;54.05;33.75;;;;;;;;;;4956253;28;20407;-60
2021/12/22 05:31:32;;;;;;;46.13;33.25;;;;;;;;;;4964303;28;20048;-60
2021/12/22 05:33:59;;;;;;;46.60;35.45;;;;;;;;;;4975325;28;20073;-60
2021/12/22 05:36:26;;;;;;;45.47;32.40;;;;;;;;;;4974496;28;20051;-60
2021/12/22 05:38:53;;;;;;;45.75;34.38;;;;;;;;;;4974957;28;20371;-60
2021/12/22 05:41:20;;;;;;;47.53;31.63;;;;;;;;;;4974539;28;20185;-60
2021/12/22 05:43:47;;;;;;;56.58;32.75;;;;;;;;;;4974859;28;20078;-59
2021/12/22 05:46:14;;;;;;;48.13;32.88;;;;;;;;;;4974766;28;20046;-60
2021/12/22 05:48:41;;;;;;;42.42;31.15;;;;;;;;;;4974619;28;20046;-60
2021/12/22 05:51:08;;;;;;;46.28;33.10;;;;;;;;;;4974791;28;20085;-60
2021/12/22 05:53:36;;;;;;;46.85;32.88;;;;;;;;;;4974097;28;20089;-60
2021/12/22 05:56:04;;;;;;;49.50;35.13;;;;;;;;;;4974449;28;20042;-60
2021/12/22 05:58:31;;;;;;;48.30;33.70;;;;;;;;;;4974553;28;20082;-59
2021/12/22 06:00:58;;;;;;;47.70;32.97;;;;;;;;;;4967455;28;20062;-60
2021/12/22 06:03:25;;;;;;;46.53;32.47;;;;;;;;;;4955229;28;20051;-61
2021/12/22 06:05:52;;;;;;;50.13;32.22;;;;;;;;;;4955357;28;20506;-60
2021/12/22 06:08:21;;;;;;;48.65;34.08;;;;;;;;;;4955010;29;20067;-61
2021/12/22 06:10:48;;;;;;;43.42;30.15;;;;;;;;;;4955204;28;20039;-60
2021/12/22 06:13:18;;;;;;;44.92;31.83;;;;;;;;;;4955268;28;20502;-61
2021/12/22 06:15:44;;;;;;;47.15;33.83;;;;;;;;;;4954033;28;20160;-59
2021/12/22 06:18:12;;;;;;;55.13;36.10;;;;;;;;;;4955452;28;20051;-61
2021/12/22 06:20:39;;;;;;;60.20;39.50;;;;;;;;;;4954643;28;20035;-57
2021/12/22 06:23:06;;;;;;;64.55;43.08;;;;;;;;;;4954711;28;20050;-60
2021/12/22 06:25:35;;;;;;;64.60;43.63;;;;;;;;;;4953903;28;20502;-61
2021/12/22 06:28:03;;;;;;;58.05;40.35;;;;;;;;;;4954207;28;20049;-61
2021/12/22 06:30:30;;;;;;;59.25;42.67;;;;;;;;;;4952685;29;20372;-61
2021/12/22 06:32:57;;;;;;;49.17;37.63;;;;;;;;;;4954073;28;20442;-61
2021/12/22 06:35:24;;;;;;;50.60;34.17;;;;;;;;;;4954328;29;20505;-61
2021/12/22 06:37:52;;;;;;;47.92;34.78;;;;;;;;;;4954781;28;20051;-61
2021/12/22 06:40:20;;;;;;;43.35;33.97;;;;;;;;;;4954982;28;20044;-61
2021/12/22 06:42:47;;;;;;;45.28;35.03;;;;;;;;;;4959350;28;20051;-61
2021/12/22 06:45:14;;;;;;;47.30;31.88;;;;;;;;;;4968340;28;20732;-61
2021/12/22 06:47:41;;;;;;;43.30;28.85;;;;;;;;;;4949994;28;20043;-61
2021/12/22 06:50:09;;;;;;;37.17;27.45;;;;;;;;;;4963123;28;20038;-60
2021/12/22 06:52:36;;;;;;;46.83;33.17;;;;;;;;;;4964243;28;20046;-56
2021/12/22 06:55:03;;;;;;;64.30;31.67;;;;;;;;;;4960721;28;20047;-55
2021/12/22 06:57:32;;;;;;;46.38;32.35;;;;;;;;;;4948486;28;20094;-53
2021/12/22 07:00:00;;;;;;;49.20;34.40;;;;;;;;;;4954320;28;20055;-58
2021/12/22 07:02:27;;;;;;;44.78;31.58;;;;;;;;;;4953331;28;20054;-59
2021/12/22 07:04:54;;;;;;;45.25;33.42;;;;;;;;;;4971776;28;20502;-58
2021/12/22 07:07:20;;;;;;;51.63;37.00;;;;;;;;;;4972782;28;20054;-59
2021/12/22 07:09:47;;;;;;;65.35;42.80;;;;;;;;;;4972188;28;20047;-56
2021/12/22 07:12:14;;;;;;;66.10;45.72;;;;;;;;;;4972524;28;20054;-58
2021/12/22 07:14:41;;;;;;;53.67;37.60;;;;;;;;;;4972643;28;20126;-58
2021/12/22 07:17:09;;;;;;;50.67;35.42;;;;;;;;;;4972910;28;20437;-59
2021/12/22 07:19:36;;;;;;;47.08;35.38;;;;;;;;;;4972550;28;20509;-57
2021/12/22 07:22:03;;;;;;;48.85;36.20;;;;;;;;;;4972820;28;20070;-59
2021/12/22 07:24:30;;;;;;;44.08;32.97;;;;;;;;;;4966602;28;20038;-58
2021/12/22 07:26:57;;;;;;;45.75;31.38;;;;;;;;;;4972536;28;20054;-60
2021/12/22 07:29:24;;;;;;;48.08;33.30;;;;;;;;;;4972495;28;20038;-59
2021/12/22 07:31:51;;;;;;;48.03;31.38;;;;;;;;;;4971992;28;20403;-59
2021/12/22 07:34:27;;;;;;;47.58;32.58;;;;;;;;;;4953987;28;20055;-58
2021/12/22 07:37:24;;;;;;;46.40;32.95;;;;;;;;;;4972510;28;20047;-58
2021/12/22 07:39:52;;;;;;;38.28;27.00;;;;;;;;;;4933466;28;20059;-57
2021/12/22 07:42:19;;;;;;;43.97;29.40;;;;;;;;;;4971844;28;20050;-57
2021/12/22 07:44:46;;;;;;;37.50;26.95;;;;;;;;;;4964601;28;20515;-59
2021/12/22 07:47:12;;;;;;;62.00;38.78;;;;;;;;;;4951036;28;20051;-58
2021/12/22 07:49:39;;;;;;;49.05;34.83;;;;;;;;;;4951155;28;20528;-57
2021/12/22 07:52:06;;;;;;;43.55;29.20;;;;;;;;;;4952262;28;20043;-56
2021/12/22 07:54:36;;;;;;;41.33;25.95;;;;;;;;;;4952958;28;20051;-57
2021/12/22 07:57:03;;;;;;;34.30;21.83;;;;;;;;;;4953142;28;20506;-58
2021/12/22 07:59:30;;;;;;;32.70;22.67;;;;;;;;;;4950099;28;20047;-58
2021/12/22 08:01:58;;;;;;;33.63;21.45;;;;;;;;;;4935839;28;20447;-59
2021/12/22 08:04:25;;;;;;;27.52;19.15;;;;;;;;;;4952391;28;20039;-59
2021/12/22 08:06:52;;;;;;;27.23;18.92;;;;;;;;;;4950394;28;20351;-56
2021/12/22 08:09:25;;;;;;;30.23;17.38;;;;;;;;;;4951213;28;20439;-59
2021/12/22 08:11:56;;;;;;;28.10;18.45;;;;;;;;;;4955082;28;20055;-58
2021/12/22 08:14:24;;;;;;;24.05;16.67;;;;;;;;;;4955348;28;20776;-59
2021/12/22 08:16:51;;;;;;;23.38;17.98;;;;;;;;;;4953842;28;20074;-60
2021/12/22 08:19:18;;;;;;;23.75;16.77;;;;;;;;;;4953227;28;20098;-58
2021/12/22 08:21:45;;;;;;;30.38;16.35;;;;;;;;;;4954596;28;20036;-60
2021/12/22 08:24:13;;;;;;;18.65;13.27;;;;;;;;;;4962000;28;20086;-57
2021/12/22 08:26:40;;;;;;;20.65;15.88;;;;;;;;;;4955348;28;20055;-56
2021/12/22 08:29:07;;;;;;;24.90;12.65;;;;;;;;;;4954451;28;20058;-57
2021/12/22 08:31:34;;;;;;;19.92;13.45;;;;;;;;;;4954227;28;20047;-56
2021/12/22 08:34:01;;;;;;;21.48;15.45;;;;;;;;;;4954005;28;20055;-56
2021/12/22 08:39:14;;;;;;;23.23;14.95;;;;;;;;;;4937717;28;20040;-58
2021/12/22 08:41:41;;;;;;;22.05;14.57;;;;;;;;;;4954912;28;20038;-61
2021/12/22 08:44:10;;;;;;;22.08;14.57;;;;;;;;;;4956028;28;20054;-59
2021/12/22 08:46:42;;;;;;;22.60;15.45;;;;;;;;;;4955230;28;20039;-56
2021/12/22 08:49:09;;;;;;;16.63;13.35;;;;;;;;;;4958699;28;20044;-55
2021/12/22 08:51:37;;;;;;;17.85;12.27;;;;;;;;;;4960451;28;20046;-55
2021/12/22 08:54:04;;;;;;;21.27;14.10;;;;;;;;;;4959391;28;20047;-56
2021/12/22 08:56:32;;;;;;;18.35;13.82;;;;;;;;;;4961719;28;20046;-56
2021/12/22 08:58:59;;;;;;;20.83;17.05;;;;;;;;;;4962315;28;20047;-57
2021/12/22 09:01:27;;;;;;;24.40;16.95;;;;;;;;;;4957887;28;20086;-57
2021/12/22 09:03:54;;;;;;;42.38;26.63;;;;;;;;;;4962894;28;20074;-61
2021/12/22 09:06:22;;;;;;;41.05;28.38;;;;;;;;;;4957862;28;20513;-59
2021/12/22 09:08:50;;;;;;;44.75;31.13;;;;;;;;;;4956591;28;20046;-60
2021/12/22 09:11:17;;;;;;;62.17;35.60;;;;;;;;;;4954633;28;20066;-55
2021/12/22 09:13:44;;;;;;;49.58;32.67;;;;;;;;;;4956641;28;20397;-60
2021/12/22 09:16:12;;;;;;;43.90;34.25;;;;;;;;;;4955543;28;20035;-60
2021/12/22 09:18:39;;;;;;;46.78;35.38;;;;;;;;;;4960020;28;20141;-58
2021/12/22 09:21:09;;;;;;;49.28;34.50;;;;;;;;;;4957798;28;20356;-58
2021/12/22 09:23:36;;;;;;;49.00;35.67;;;;;;;;;;4958779;28;20042;-57
2021/12/22 09:26:03;;;;;;;41.72;32.00;;;;;;;;;;4960649;28;20039;-60
2021/12/22 09:28:30;;;;;;;49.97;33.17;;;;;;;;;;4963243;28;20047;-56
2021/12/22 09:30:58;;;;;;;49.08;33.67;;;;;;;;;;4962603;28;20050;-60
2021/12/22 09:33:25;;;;;;;47.10;33.58;;;;;;;;;;4956062;28;20516;-58
2021/12/22 09:35:53;;;;;;;41.63;31.60;;;;;;;;;;4962923;28;20046;-58
2021/12/22 09:38:20;;;;;;;53.10;33.70;;;;;;;;;;4960247;28;20523;-58
2021/12/22 09:40:48;;;;;;;54.85;36.25;;;;;;;;;;4963962;28;20046;-56
2021/12/22 09:43:15;;;;;;;47.53;34.50;;;;;;;;;;4956083;28;20055;-58
2021/12/22 09:45:46;;;;;;;50.47;33.10;;;;;;;;;;4958178;28;20119;-55
2021/12/22 09:53:23;;;;;;;56.70;33.47;;;;;;;;;;4955996;28;20447;-58
2021/12/22 09:55:51;;;;;;;51.97;34.38;;;;;;;;;;4957809;28;20446;-55
2021/12/22 09:58:18;;;;;;;61.53;35.20;;;;;;;;;;4959490;28;20443;-60
2021/12/22 10:00:46;;;;;;;49.55;35.58;;;;;;;;;;4964890;28;20478;-59
2021/12/22 10:03:15;;;;;;;44.92;34.03;;;;;;;;;;4958479;28;20057;-59
2021/12/22 10:05:44;;;;;;;46.08;34.13;;;;;;;;;;4955477;28;20039;-55
2021/12/22 10:08:20;;;;;;;47.25;33.42;;;;;;;;;;4962469;28;20046;-57
2021/12/22 10:11:00;;;;;;;49.88;32.28;;;;;;;;;;4958742;28;20063;-57
2021/12/22 10:13:29;;;;;;;47.05;34.90;;;;;;;;;;4959430;28;20055;-57
2021/12/22 10:15:57;;;;;;;50.03;33.00;;;;;;;;;;4954462;28;20109;-57
2021/12/22 10:18:26;;;;;;;46.53;35.30;;;;;;;;;;4952426;28;20046;-58
2021/12/22 10:21:27;;;;;;;46.90;33.22;;;;;;;;;;4953694;28;20051;-57
2021/12/22 10:23:55;;;;;;;48.10;32.33;;;;;;;;;;4911913;28;20054;-56
2021/12/22 10:26:26;;;;;;;44.75;33.00;;;;;;;;;;4953172;28;20078;-54
2021/12/22 10:28:59;;;;;;;46.80;32.67;;;;;;;;;;4953650;28;20458;-55
2021/12/22 10:31:46;;;;;;;51.08;35.17;;;;;;;;;;4954893;28;20046;-53
2021/12/22 10:34:16;;;;;;;51.30;36.50;;;;;;;;;;4953117;28;20039;-58
2021/12/22 10:36:46;;;;;;;56.75;34.90;;;;;;;;;;4953303;28;20039;-59
2021/12/22 10:39:23;;;;;;;51.25;31.77;;;;;;;;;;4954345;28;20055;-59
2021/12/22 10:41:50;;;;;;;49.67;33.15;;;;;;;;;;4953619;28;20071;-57
2021/12/22 10:44:19;;;;;;;46.58;33.00;;;;;;;;;;4953958;28;20078;-59
2021/12/22 10:46:48;;;;;;;45.03;33.60;;;;;;;;;;4952958;28;20474;-57
2021/12/22 10:49:21;;;;;;;45.10;33.10;;;;;;;;;;4935123;28;20054;-59
2021/12/22 10:51:58;;;;;;;43.58;33.90;;;;;;;;;;4954117;28;20047;-58
2021/12/22 10:54:33;;;;;;;47.45;33.83;;;;;;;;;;4969114;28;20047;-54
2021/12/22 10:57:03;;;;;;;53.95;32.45;;;;;;;;;;4971712;28;20043;-54
2021/12/22 10:59:49;;;;;;;51.65;34.50;;;;;;;;;;4971810;28;20058;-52
2021/12/22 11:02:20;;;;;;;48.42;34.97;;;;;;;;;;4972763;28;20520;-55
2021/12/22 11:04:49;;;;;;;42.33;32.80;;;;;;;;;;4972675;28;20486;-57
2021/12/22 11:07:29;;;;;;;46.85;33.15;;;;;;;;;;4972636;28;20038;-53
2021/12/22 11:09:56;;;;;;;55.45;35.67;;;;;;;;;;4972406;28;20113;-57
2021/12/22 11:12:39;;;;;;;41.55;31.65;;;;;;;;;;4972206;28;20049;-56
2021/12/22 11:15:22;;;;;;;41.67;31.60;;;;;;;;;;4956367;28;20051;-56
2021/12/22 11:17:49;;;;;;;50.97;35.28;;;;;;;;;;4954032;28;20433;-55
2021/12/22 11:20:17;;;;;;;47.58;33.00;;;;;;;;;;4957895;28;20586;-56
2021/12/22 11:35:04;;;;;;;53.67;37.25;;;;;;;;;;5065659;28;20408;-57
2021/12/22 11:37:31;;;;;;;46.38;34.42;;;;;;;;;;5047584;28;20042;-58
2021/12/22 11:39:59;;;;;;;50.40;31.65;;;;;;;;;;5061324;28;20048;-58
2021/12/22 11:42:31;;;;;;;49.65;32.33;;;;;;;;;;5062529;28;20553;-59
2021/12/22 11:45:22;;;;;;;48.75;33.90;;;;;;;;;;5068779;28;20049;-60
2021/12/22 11:47:52;;;;;;;46.05;35.28;;;;;;;;;;5056638;28;20064;-58
2021/12/22 11:50:32;;;;;;;48.30;33.83;;;;;;;;;;5062829;28;20118;-60
2021/12/22 11:53:00;;;;;;;45.92;38.05;;;;;;;;;;5066273;28;20487;-60
2021/12/22 11:55:36;;;;;;;53.83;37.70;;;;;;;;;;5049305;28;20033;-59
2021/12/22 11:58:19;;;;;;;49.05;34.20;;;;;;;;;;5048647;28;20103;-59
2021/12/22 12:00:55;;;;;;;52.10;35.72;;;;;;;;;;5049222;28;20041;-59
2021/12/22 12:03:30;;;;;;;44.38;35.10;;;;;;;;;;5048265;28;20049;-59
2021/12/22 12:06:07;;;;;;;55.15;37.60;;;;;;;;;;5062824;28;20562;-60
2021/12/22 12:08:50;;;;;;;53.70;40.30;;;;;;;;;;5067784;28;20514;-59
2021/12/22 12:11:53;;;;;;;60.20;41.25;;;;;;;;;;5066061;28;20051;-58
2021/12/22 12:23:32;;;;;;;58.63;39.42;;;;;;;;;;5053130;28;20442;-63
2021/12/22 12:26:05;;;;;;;55.15;39.05;;;;;;;;;;5050632;28;20060;-59
2021/12/22 12:28:45;;;;;;;52.80;37.47;;;;;;;;;;5053854;28;20045;-57
2021/12/22 12:31:12;;;;;;;50.67;37.92;;;;;;;;;;5053278;28;20487;-59
2021/12/22 12:33:45;;;;;;;53.97;39.10;;;;;;;;;;5049909;28;20057;-62
2021/12/22 12:36:15;;;;;;;55.28;38.58;;;;;;;;;;5042416;28;20049;-56
2021/12/22 12:38:45;;;;;;;48.05;35.90;;;;;;;;;;5054783;28;20120;-61
2021/12/22 12:41:28;;;;;;;51.33;37.85;;;;;;;;;;5059012;28;20546;-59
2021/12/22 12:43:57;;;;;;;58.72;36.78;;;;;;;;;;5055841;28;20072;-57
2021/12/22 12:46:39;;;;;;;53.00;36.97;;;;;;;;;;5037216;28;20052;-57
2021/12/22 12:49:06;;;;;;;51.92;37.00;;;;;;;;;;5035042;28;20047;-59
2021/12/22 12:51:42;;;;;;;53.83;39.70;;;;;;;;;;5037407;28;20041;-58
2021/12/22 12:54:25;;;;;;;;;;;;;;;;;;5040124;28;20057;-58
2021/12/22 12:56:54;;;;;;;53.50;37.17;;;;;;;;;;5044647;28;19921;-58
2021/12/22 12:59:27;;;;;;;52.40;38.20;;;;;;;;;;5036803;28;20515;-59
2021/12/22 13:01:53;;;;;;;54.88;37.70;;;;;;;;;;5039822;28;20064;-58
2021/12/22 13:04:37;;;;;;;50.90;37.33;;;;;;;;;;5044069;28;20041;-59
2021/12/22 13:07:16;;;;;;;44.05;35.88;;;;;;;;;;5049875;28;20047;-57
2021/12/22 13:09:46;;;;;;;43.20;33.97;;;;;;;;;;5046644;28;20056;-59
2021/12/22 13:17:54;;;;;;;41.97;30.90;;;;;;;;;;5050502;28;20037;-59
2021/12/22 13:20:30;;;;;;;41.85;31.63;;;;;;;;;;5043688;28;20060;-59
2021/12/22 13:23:06;;;;;;;39.88;28.40;;;;;;;;;;5046952;28;20045;-60
2021/12/22 13:25:41;;;;;;;37.67;28.42;;;;;;;;;;5051030;28;20040;-58
2021/12/22 13:28:10;;;;;;;33.17;27.52;;;;;;;;;;5049331;28;20051;-60
2021/12/22 13:30:38;;;;;;;35.45;28.00;;;;;;;;;;5050230;28;20614;-59
2021/12/22 13:33:17;;;;;;;29.92;22.90;;;;;;;;;;5050066;28;20061;-61
2021/12/22 13:36:00;;;;;;;35.00;28.52;;;;;;;;;;5039663;28;20061;-60
2021/12/22 13:38:26;;;;;;;31.73;24.17;;;;;;;;;;5049961;28;20041;-61
2021/12/22 13:41:14;;;;;;;38.17;23.80;;;;;;;;;;5050743;28;20387;-62
2021/12/22 13:43:59;;;;;;;39.47;24.27;;;;;;;;;;5050408;28;20052;-60
2021/12/22 13:46:34;;;;;;;29.73;23.33;;;;;;;;;;5049161;28;20499;-61
2021/12/22 13:49:12;;;;;;;38.53;27.33;;;;;;;;;;5048011;28;20037;-59
2021/12/22 13:51:46;;;;;;;37.83;28.88;;;;;;;;;;5050309;28;20080;-60
2021/12/22 13:54:19;;;;;;;33.37;28.93;;;;;;;;;;5041023;28;20467;-58
2021/12/22 13:56:48;;;;;;;39.63;28.38;;;;;;;;;;5045261;28;20302;-58
2021/12/22 13:59:23;;;;;;;28.15;22.13;;;;;;;;;;5042695;28;20387;-58
2021/12/22 14:01:55;;;;;;;29.45;22.13;;;;;;;;;;5041212;28;20491;-59
2021/12/22 14:04:27;;;;;;;27.70;20.13;;;;;;;;;;5047044;28;20045;-64
2021/12/22 14:07:06;;;;;;;28.08;21.17;;;;;;;;;;5045159;28;20071;-61
2021/12/22 14:09:34;;;;;;;25.55;19.00;;;;;;;;;;5046498;28;20391;-58
2021/12/22 14:12:11;;;;;;;28.75;20.98;;;;;;;;;;5043117;28;20123;-57
2021/12/22 14:14:43;;;;;;;33.63;18.70;;;;;;;;;;5048682;28;20055;-56
2021/12/22 14:17:35;;;;;;;33.03;24.15;;;;;;;;;;5047067;28;20080;-58
2021/12/22 14:20:06;;;;;;;24.52;19.30;;;;;;;;;;5041223;28;20408;-60
2021/12/22 14:22:35;;;;;;;26.92;21.17;;;;;;;;;;5048022;28;20048;-60
2021/12/22 14:25:05;;;;;;;25.10;20.92;;;;;;;;;;5049870;28;20045;-61
2021/12/22 14:27:56;;;;;;;26.02;20.85;;;;;;;;;;5046699;28;20037;-58
2021/12/22 14:30:25;;;;;;;28.73;20.08;;;;;;;;;;5043631;28;20128;-57
2021/12/22 14:32:54;;;;;;;26.60;22.42;;;;;;;;;;5049205;28;20502;-60
2021/12/22 14:35:22;;;;;;;27.15;20.25;;;;;;;;;;5049495;28;20044;-59
2021/12/22 14:38:06;;;;;;;30.52;20.98;;;;;;;;;;5049710;28;20045;-59
2021/12/22 14:40:36;;;;;;;29.08;21.38;;;;;;;;;;5048189;28;20433;-58
2021/12/22 14:43:10;;;;;;;30.88;22.42;;;;;;;;;;5047550;28;20037;-60
2021/12/22 14:45:44;;;;;;;28.17;21.52;;;;;;;;;;5049433;28;20045;-60
2021/12/22 14:48:23;;;;;;;26.90;21.70;;;;;;;;;;5049911;28;20053;-58
2021/12/22 14:50:55;;;;;;;34.33;22.30;;;;;;;;;;5049485;28;20040;-57
2021/12/22 14:53:40;;;;;;;29.42;21.58;;;;;;;;;;5048559;28;20045;-58
2021/12/22 14:56:15;;;;;;;28.90;21.52;;;;;;;;;;5049301;28;20041;-62
2021/12/22 14:58:42;;;;;;;30.23;22.00;;;;;;;;;;5050416;28;20049;-59
2021/12/22 15:01:12;;;;;;;30.98;21.27;;;;;;;;;;5046426;28;20114;-61
2021/12/22 15:03:39;;;;;;;26.90;21.35;;;;;;;;;;5042514;28;20044;-60
2021/12/22 15:06:09;;;;;;;31.02;22.42;;;;;;;;;;5040265;28;20042;-57
2021/12/22 15:08:40;;;;;;;29.20;23.38;;;;;;;;;;5043857;28;20049;-58
2021/12/22 15:11:07;;;;;;;31.55;21.67;;;;;;;;;;5048088;28;20407;-58
2021/12/22 15:13:36;;;;;;;28.00;21.33;;;;;;;;;;5048269;28;20045;-57
2021/12/22 15:16:04;;;;;;;26.40;21.38;;;;;;;;;;5048707;28;20541;-59
2021/12/22 15:18:32;;;;;;;34.35;21.92;;;;;;;;;;5048952;28;20084;-58
2021/12/22 15:20:59;;;;;;;28.85;22.33;;;;;;;;;;5045577;28;20055;-58
2021/12/22 15:23:26;;;;;;;25.83;20.75;;;;;;;;;;5047385;28;20495;-59
2021/12/22 15:25:54;;;;;;;27.27;21.42;;;;;;;;;;5048507;28;20078;-59